Time;durP1;ratioP1;P1;durP2;ratioP2;P2;SDS_P1;SDS_P2;PMS_P1;PMS_P2;Temp;Humidity;BMP_temperature;BMP_pressure;BME280_temperature;BME280_humidity;BME280_pressure;Samples;Min_cycle;Max_cycle;Signal;HPM_P1;HPM_P2
2023/04/22 00:02:13;;;;;;;781.50;190.97;;;;;;;12.93;53.33;100868.75;5096939;28;20476;-78
2023/04/22 00:04:40;;;;;;;788.05;193.25;;;;;;;12.96;52.98;100873.69;5094595;28;20447;-78
2023/04/22 00:07:06;;;;;;;791.97;193.50;;;;;;;12.87;53.58;100869.44;5096670;28;20765;-78
2023/04/22 00:09:31;;;;;;;785.30;191.87;;;;;;;12.87;53.53;100866.78;5096551;28;20381;-78
2023/04/22 00:11:57;;;;;;;792.73;193.83;;;;;;;12.91;53.57;100871.59;5095444;28;20397;-81
2023/04/22 00:14:23;;;;;;;763.83;184.35;;;;;;;12.85;53.51;100860.84;5101609;28;20400;-79
2023/04/22 00:16:48;;;;;;;756.20;182.27;;;;;;;12.87;53.60;100866.78;5102258;28;20389;-79
2023/04/22 00:19:15;;;;;;;754.10;180.65;;;;;;;12.83;53.86;100871.66;5098821;28;20412;-79
2023/04/22 00:21:40;;;;;;;749.40;179.93;;;;;;;12.68;54.27;100879.59;5099531;28;20412;-79
2023/04/22 00:24:06;;;;;;;745.40;179.15;;;;;;;12.74;54.01;100878.88;5094849;28;20386;-78
2023/04/22 00:26:31;;;;;;;737.83;176.70;;;;;;;12.79;53.75;100887.16;5097262;28;20400;-79
2023/04/22 00:28:57;;;;;;;727.93;173.40;;;;;;;12.73;53.72;100895.84;5095319;28;20401;-79
2023/04/22 00:31:22;;;;;;;715.83;168.60;;;;;;;12.58;53.84;100898.44;5098681;28;20392;-79
2023/04/22 00:33:48;;;;;;;726.50;171.50;;;;;;;12.54;53.81;100899.81;5105226;28;20393;-79
2023/04/22 00:36:14;;;;;;;717.03;169.20;;;;;;;12.40;53.75;100890.78;5099356;28;20467;-80
2023/04/22 00:38:43;;;;;;;717.30;169.27;;;;;;;12.22;53.84;100896.38;5098343;28;20401;-80
2023/04/22 00:41:11;;;;;;;699.35;164.35;;;;;;;12.09;54.13;100905.97;5096836;28;20420;-79
2023/04/22 00:43:37;;;;;;;711.03;167.00;;;;;;;11.96;54.27;100899.38;5096331;28;20400;-78
2023/04/22 00:46:02;;;;;;;700.83;164.50;;;;;;;11.85;54.79;100899.75;5095865;28;20385;-79
2023/04/22 00:48:29;;;;;;;709.50;167.03;;;;;;;11.81;54.92;100901.06;5095933;28;20856;-80
2023/04/22 00:50:54;;;;;;;709.63;166.32;;;;;;;11.75;55.08;100899.94;5096490;28;20454;-79
2023/04/22 00:53:19;;;;;;;710.83;167.37;;;;;;;11.75;55.23;100918.53;5096397;28;20748;-80
2023/04/22 00:55:45;;;;;;;703.73;165.50;;;;;;;11.74;55.07;100910.72;5097413;28;20471;-79
2023/04/22 00:58:11;;;;;;;704.30;165.77;;;;;;;11.88;54.67;100911.84;5096789;28;20385;-80
2023/04/22 01:00:36;;;;;;;704.00;164.88;;;;;;;11.95;54.54;100921.63;5096662;28;20400;-80
2023/04/22 01:03:02;;;;;;;698.92;164.45;;;;;;;11.90;54.57;100913.34;5096322;28;20456;-79
2023/04/22 01:05:30;;;;;;;700.17;163.98;;;;;;;11.79;54.79;100906.59;5096072;28;20402;-79
2023/04/22 01:07:56;;;;;;;699.35;163.98;;;;;;;11.85;54.90;100916.50;5096510;28;20400;-79
2023/04/22 01:10:22;;;;;;;702.72;164.13;;;;;;;11.90;54.66;100915.16;5096417;28;20373;-79
2023/04/22 01:12:47;;;;;;;698.33;164.07;;;;;;;11.83;54.71;100909.72;5095164;28;20461;-79
2023/04/22 01:15:13;;;;;;;695.53;163.20;;;;;;;11.90;54.61;100917.81;5095820;28;20385;-78
2023/04/22 01:17:38;;;;;;;700.65;164.45;;;;;;;11.80;55.06;100918.03;5094929;28;20729;-79
2023/04/22 01:20:04;;;;;;;702.30;164.00;;;;;;;11.71;55.43;100919.88;5097101;28;20401;-78
2023/04/22 01:22:35;;;;;;;697.00;162.90;;;;;;;11.66;55.97;100922.22;5097142;28;20487;-79
2023/04/22 01:25:02;;;;;;;689.40;161.40;;;;;;;11.71;55.85;100921.72;5096391;28;20388;-79
2023/04/22 01:27:27;;;;;;;688.75;160.77;;;;;;;11.81;55.73;100912.56;5095425;28;20929;-79
2023/04/22 01:29:53;;;;;;;690.07;161.77;;;;;;;11.71;55.94;100914.56;5095876;28;20441;-79
2023/04/22 01:32:19;;;;;;;687.80;161.03;;;;;;;11.67;56.29;100929.22;5095129;28;20454;-78
2023/04/22 01:34:45;;;;;;;691.57;162.10;;;;;;;11.64;56.53;100918.91;5094804;28;20385;-79
2023/04/22 01:37:10;;;;;;;694.63;162.90;;;;;;;11.74;55.92;100934.63;5094566;28;20454;-80
2023/04/22 01:39:36;;;;;;;693.03;162.23;;;;;;;11.66;56.17;100931.00;5094364;28;20397;-79
2023/04/22 01:42:02;;;;;;;697.42;162.60;;;;;;;11.53;56.85;100936.03;5094816;28;20393;-79
2023/04/22 01:44:27;;;;;;;695.42;162.38;;;;;;;11.44;57.22;100932.59;5095555;28;20388;-77
2023/04/22 01:46:53;;;;;;;686.30;160.97;;;;;;;11.43;57.29;100936.25;5095326;28;20389;-79
2023/04/22 01:49:19;;;;;;;621.90;146.97;;;;;;;11.24;57.57;100933.97;5094618;28;20413;-80
2023/04/22 01:51:44;;;;;;;607.28;143.75;;;;;;;11.26;57.53;100938.09;5093811;28;20397;-79
2023/04/22 01:54:10;;;;;;;602.33;142.87;;;;;;;11.32;57.42;100939.25;5093014;28;20390;-79
2023/04/22 01:56:37;;;;;;;600.47;143.48;;;;;;;11.33;56.98;100940.91;5093792;28;20377;-79
2023/04/22 01:59:03;;;;;;;589.30;140.75;;;;;;;11.26;57.21;100937.28;5089605;28;20410;-79
2023/04/22 02:01:29;;;;;;;572.47;137.40;;;;;;;11.25;57.09;100931.16;5089790;28;20405;-78
2023/04/22 02:03:54;;;;;;;574.45;136.70;;;;;;;11.21;57.48;100943.09;5096971;28;20397;-79
2023/04/22 02:06:20;;;;;;;538.90;129.90;;;;;;;11.20;57.53;100940.59;5097236;28;20408;-79
2023/04/22 02:08:45;;;;;;;660.53;154.20;;;;;;;10.93;58.22;100939.97;5094350;28;20392;-79
2023/04/22 02:11:11;;;;;;;783.70;189.37;;;;;;;10.90;58.10;100946.44;5093334;28;21075;-79
2023/04/22 02:13:38;;;;;;;775.93;186.17;;;;;;;11.03;57.78;100947.75;5093272;28;20400;-80
2023/04/22 02:16:05;;;;;;;783.78;188.25;;;;;;;11.08;57.78;100934.81;5095045;28;20397;-80
2023/04/22 02:18:30;;;;;;;787.37;188.27;;;;;;;11.05;57.79;100935.97;5095590;28;20478;-80
2023/04/22 02:20:56;;;;;;;776.70;184.70;;;;;;;11.17;57.25;100927.69;5099509;28;20385;-79
2023/04/22 02:23:22;;;;;;;773.80;184.87;;;;;;;11.22;57.13;100926.19;5101204;28;20502;-79
2023/04/22 02:25:51;;;;;;;769.17;183.73;;;;;;;11.29;56.84;100926.34;5096064;28;20385;-80
2023/04/22 02:28:17;;;;;;;751.90;177.10;;;;;;;11.30;57.07;100930.63;5103611;28;20756;-78
2023/04/22 02:30:45;;;;;;;733.75;173.00;;;;;;;11.23;57.54;100932.31;5104840;28;20361;-78
2023/04/22 02:33:10;;;;;;;734.22;172.43;;;;;;;11.32;57.17;100931.28;5107064;28;20476;-78
2023/04/22 02:35:36;;;;;;;740.07;174.20;;;;;;;11.32;57.01;100917.19;5096327;28;20862;-79
2023/04/22 02:38:01;;;;;;;740.80;174.23;;;;;;;11.43;56.66;100932.75;5094702;28;20369;-79
2023/04/22 02:40:27;;;;;;;733.13;172.73;;;;;;;11.39;56.58;100921.66;5094978;28;20429;-80
2023/04/22 02:42:52;;;;;;;737.77;174.40;;;;;;;11.40;56.67;100925.16;5093942;28;20377;-79
2023/04/22 02:45:18;;;;;;;740.93;174.27;;;;;;;11.50;56.69;100931.06;5094090;28;20381;-79
2023/04/22 02:47:43;;;;;;;743.50;177.52;;;;;;;11.49;56.39;100929.44;5094833;28;20381;-80
2023/04/22 02:50:09;;;;;;;743.30;175.13;;;;;;;11.51;56.30;100929.25;5093237;28;20409;-79
2023/04/22 02:52:35;;;;;;;748.63;176.97;;;;;;;11.55;56.48;100933.22;5093188;28;20843;-80
2023/04/22 02:55:00;;;;;;;738.83;174.67;;;;;;;11.37;56.93;100933.44;5094229;28;20385;-79
2023/04/22 02:57:26;;;;;;;740.80;175.15;;;;;;;11.47;56.63;100926.94;5093623;28;20415;-79
2023/04/22 02:59:52;;;;;;;723.10;169.30;;;;;;;11.41;56.83;100921.47;5095509;28;20393;-80
2023/04/22 03:02:17;;;;;;;721.90;169.10;;;;;;;11.40;56.65;100915.34;5091648;28;20389;-78
2023/04/22 03:04:43;;;;;;;700.57;164.70;;;;;;;11.50;56.42;100919.63;5091283;28;20542;-80
2023/04/22 03:07:09;;;;;;;709.93;165.93;;;;;;;11.58;56.26;100925.75;5089471;28;20408;-79
2023/04/22 03:09:34;;;;;;;715.38;167.02;;;;;;;11.53;56.16;100921.97;5090962;28;20381;-79
2023/04/22 03:12:01;;;;;;;716.33;168.23;;;;;;;11.58;56.26;100940.84;5090611;28;20912;-80
2023/04/22 03:14:27;;;;;;;706.80;166.07;;;;;;;11.36;57.00;100932.63;5089285;28;20403;-79
2023/04/22 03:16:52;;;;;;;705.70;165.37;;;;;;;11.19;57.51;100928.34;5091106;28;20460;-80
2023/04/22 03:19:17;;;;;;;706.50;165.07;;;;;;;11.31;57.14;100940.25;5094452;28;20476;-80
2023/04/22 03:21:43;;;;;;;665.17;155.83;;;;;;;11.40;56.95;100930.47;5093450;28;20442;-79
2023/04/22 03:24:08;;;;;;;648.77;152.50;;;;;;;11.46;56.70;100943.84;5091544;28;20424;-79
2023/04/22 03:26:34;;;;;;;624.08;147.63;;;;;;;11.54;56.32;100937.72;5091315;28;20385;-79
2023/04/22 03:29:00;;;;;;;622.73;147.37;;;;;;;11.57;56.30;100934.69;5091110;28;20373;-78
2023/04/22 03:31:25;;;;;;;613.27;145.70;;;;;;;11.47;56.73;100932.25;5091019;28;20944;-79
2023/04/22 03:33:51;;;;;;;615.40;147.07;;;;;;;11.42;57.02;100950.50;5095148;28;20392;-79
2023/04/22 03:36:16;;;;;;;610.80;146.15;;;;;;;11.46;57.14;100941.19;5094743;28;20385;-79
2023/04/22 03:38:42;;;;;;;613.13;146.30;;;;;;;11.55;56.67;100947.31;5094024;28;20389;-79
2023/04/22 03:41:08;;;;;;;626.70;149.20;;;;;;;11.62;56.50;100944.81;5095208;28;20486;-79
2023/04/22 03:43:33;;;;;;;614.75;146.30;;;;;;;11.62;56.48;100937.66;5095419;28;20387;-79
2023/04/22 03:45:59;;;;;;;619.97;147.18;;;;;;;11.70;56.28;100944.78;5095378;28;20382;-79
2023/04/22 03:48:24;;;;;;;620.37;146.70;;;;;;;11.78;56.23;100959.88;5094457;28;20409;-80
2023/04/22 03:50:50;;;;;;;611.53;145.43;;;;;;;11.66;56.59;100948.78;5095387;28;20381;-79
2023/04/22 03:53:15;;;;;;;613.85;146.48;;;;;;;11.81;56.49;100963.00;5107619;28;20408;-79
2023/04/22 03:55:41;;;;;;;606.77;144.70;;;;;;;11.86;56.20;100955.31;5100005;28;20377;-80
2023/04/22 03:58:06;;;;;;;616.27;146.13;;;;;;;11.97;56.15;100962.13;5097037;28;20420;-80
2023/04/22 04:00:32;;;;;;;621.35;147.43;;;;;;;12.01;56.26;100967.91;5093245;28;20405;-79
2023/04/22 04:02:58;;;;;;;615.73;146.20;;;;;;;12.08;55.97;100966.22;5096049;28;20395;-79
2023/04/22 04:05:23;;;;;;;611.77;145.60;;;;;;;12.20;55.75;100972.00;5093410;28;20389;-78
2023/04/22 04:07:49;;;;;;;615.90;146.90;;;;;;;12.28;55.92;100979.09;5092080;28;20880;-78
2023/04/22 04:10:14;;;;;;;619.28;147.75;;;;;;;12.19;56.06;100980.94;5104115;28;20387;-79
2023/04/22 04:12:40;;;;;;;597.20;144.33;;;;;;;12.10;56.54;100982.00;5097845;28;20837;-78
2023/04/22 04:15:06;;;;;;;601.35;144.88;;;;;;;12.05;56.88;100982.53;5095717;28;20459;-78
2023/04/22 04:17:32;;;;;;;608.17;146.30;;;;;;;12.03;56.96;100981.88;5093650;28;20480;-79
2023/04/22 04:19:57;;;;;;;611.93;146.73;;;;;;;12.07;56.92;100985.84;5094685;28;20501;-79
2023/04/22 04:22:23;;;;;;;613.45;146.43;;;;;;;12.08;57.06;100997.28;5093272;28;21001;-80
2023/04/22 04:24:49;;;;;;;610.00;145.90;;;;;;;12.06;57.28;100989.50;5094487;28;20417;-79
2023/04/22 04:27:14;;;;;;;609.37;146.57;;;;;;;12.11;56.85;100997.78;5094668;28;20431;-79
2023/04/22 04:29:40;;;;;;;612.30;146.40;;;;;;;12.09;56.85;101005.09;5094075;28;20785;-79
2023/04/22 04:32:07;;;;;;;600.30;144.03;;;;;;;11.75;57.54;101018.63;5094244;28;20567;-78
2023/04/22 04:34:33;;;;;;;597.42;142.48;;;;;;;11.16;58.63;101011.75;5098160;28;20416;-80
2023/04/22 04:36:59;;;;;;;609.28;144.70;;;;;;;11.10;59.05;101018.53;5094114;28;20410;-79
2023/04/22 04:39:27;;;;;;;632.13;149.52;;;;;;;11.24;58.55;101016.22;5093924;28;21249;-78
2023/04/22 04:41:54;;;;;;;599.17;141.93;;;;;;;11.03;58.84;101032.63;5094220;28;20469;-80
2023/04/22 04:44:20;;;;;;;577.65;137.35;;;;;;;10.92;59.01;101020.53;5093400;28;20731;-80
2023/04/22 04:46:46;;;;;;;548.15;131.65;;;;;;;10.93;59.00;101013.41;5094036;28;20489;-79
2023/04/22 04:49:12;;;;;;;547.28;131.35;;;;;;;11.25;58.72;101028.50;5092956;28;20447;-78
2023/04/22 04:51:38;;;;;;;551.37;132.03;;;;;;;11.48;58.10;101031.28;5091631;28;20385;-79
2023/04/22 04:54:04;;;;;;;552.03;132.10;;;;;;;11.58;57.87;101034.59;5091057;28;20843;-79
2023/04/22 04:56:30;;;;;;;548.67;131.63;;;;;;;11.67;58.00;101027.47;5091235;28;20927;-79
2023/04/22 04:58:56;;;;;;;551.40;132.45;;;;;;;11.94;57.83;101034.22;5093478;28;20397;-79
2023/04/22 05:01:21;;;;;;;552.33;133.00;;;;;;;12.00;57.63;101032.69;5093683;28;20896;-79
2023/04/22 05:03:47;;;;;;;499.10;122.80;;;;;;;12.17;57.73;101041.44;5092652;28;20392;-79
2023/04/22 05:06:12;;;;;;;504.27;123.95;;;;;;;12.21;57.45;101034.78;5092783;28;20393;-80
2023/04/22 05:08:38;;;;;;;511.10;124.67;;;;;;;12.28;57.60;101030.44;5093873;28;20381;-80
2023/04/22 05:11:03;;;;;;;521.23;127.63;;;;;;;12.37;57.87;101040.03;5092368;28;20407;-80
2023/04/22 05:13:29;;;;;;;524.53;128.38;;;;;;;12.45;58.05;101038.31;5094752;28;20712;-80
2023/04/22 05:15:55;;;;;;;527.53;127.20;;;;;;;12.40;58.46;101041.50;5084464;28;20393;-80
2023/04/22 05:18:21;;;;;;;515.27;126.27;;;;;;;12.42;58.67;101037.69;5103884;28;20383;-80
2023/04/22 05:20:46;;;;;;;526.28;127.35;;;;;;;12.52;58.57;101042.78;5093795;28;20695;-80
2023/04/22 05:23:12;;;;;;;526.10;127.97;;;;;;;12.51;58.75;101033.13;5102052;28;20403;-79
2023/04/22 05:25:38;;;;;;;529.28;129.40;;;;;;;12.74;58.45;101042.97;5111409;28;20470;-80
2023/04/22 05:28:03;;;;;;;529.58;128.48;;;;;;;12.93;58.03;101039.84;5108829;28;20478;-79
2023/04/22 05:30:28;;;;;;;524.73;128.70;;;;;;;12.99;57.83;101041.78;5096807;28;20418;-78
2023/04/22 05:32:54;;;;;;;522.47;127.60;;;;;;;13.03;58.04;101039.59;5110142;28;20703;-79
2023/04/22 05:35:19;;;;;;;526.40;127.80;;;;;;;13.12;58.15;101051.03;5094872;28;20385;-79
2023/04/22 05:37:45;;;;;;;531.87;129.37;;;;;;;13.07;58.50;101051.56;5109379;28;20391;-79
2023/04/22 05:40:11;;;;;;;538.03;129.82;;;;;;;12.90;59.38;101042.84;5107372;28;20401;-79
2023/04/22 05:42:36;;;;;;;537.25;130.40;;;;;;;12.98;59.73;101053.47;5119016;28;20458;-79
2023/04/22 05:45:02;;;;;;;530.73;129.20;;;;;;;13.25;59.31;101058.41;5125409;28;20382;-78
2023/04/22 05:47:29;;;;;;;535.05;129.85;;;;;;;13.46;58.75;101047.09;5109482;28;20404;-80
2023/04/22 05:49:54;;;;;;;525.28;128.18;;;;;;;13.62;58.60;101048.78;5106331;28;20440;-81
2023/04/22 05:52:20;;;;;;;524.17;128.03;;;;;;;13.73;58.53;101041.16;5098507;28;20389;-80
2023/04/22 05:54:45;;;;;;;513.87;126.60;;;;;;;13.87;58.42;101047.53;5091668;28;20393;-81
2023/04/22 05:57:11;;;;;;;505.50;125.47;;;;;;;13.97;58.07;101041.91;5093554;28;20381;-79
2023/04/22 05:59:37;;;;;;;498.38;125.10;;;;;;;14.00;58.00;101038.88;5103403;28;20480;-80
2023/04/22 06:02:02;;;;;;;490.90;124.10;;;;;;;14.02;57.72;101034.19;5095661;28;20381;-80
2023/04/22 06:04:27;;;;;;;493.20;124.93;;;;;;;14.08;57.98;101043.28;5093829;28;20377;-79
2023/04/22 06:06:53;;;;;;;497.13;126.00;;;;;;;14.18;57.85;101059.81;5093448;28;20892;-79
2023/04/22 06:09:20;;;;;;;491.27;122.50;;;;;;;14.24;57.79;101060.91;5097902;28;20425;-79
2023/04/22 06:11:46;;;;;;;490.80;122.00;;;;;;;14.28;57.49;101052.38;5093173;28;20454;-79
2023/04/22 06:14:12;;;;;;;461.65;117.60;;;;;;;14.37;57.30;101057.59;5093314;28;20381;-79
2023/04/22 06:16:37;;;;;;;463.08;117.88;;;;;;;14.34;57.48;101056.13;5092930;28;20381;-81
2023/04/22 06:19:03;;;;;;;449.40;115.32;;;;;;;14.23;57.95;101057.44;5092493;28;20433;-81
2023/04/22 06:21:28;;;;;;;449.60;116.93;;;;;;;14.31;58.04;101065.34;5093656;28;20399;-80
2023/04/22 06:23:54;;;;;;;448.95;115.38;;;;;;;14.21;58.04;101062.13;5093082;28;20937;-80
2023/04/22 06:26:20;;;;;;;449.40;116.13;;;;;;;14.40;57.72;101071.38;5092434;28;20454;-80
2023/04/22 06:28:45;;;;;;;440.48;115.38;;;;;;;14.59;57.21;101075.34;5092525;28;20381;-80
2023/04/22 06:31:11;;;;;;;436.87;115.23;;;;;;;14.71;56.82;101075.66;5091726;28;20432;-79
2023/04/22 06:33:36;;;;;;;432.30;114.78;;;;;;;14.68;56.81;101078.72;5091426;28;20738;-77
2023/04/22 06:36:03;;;;;;;445.20;116.47;;;;;;;14.66;56.73;101080.75;5079375;28;20400;-79
2023/04/22 06:38:29;;;;;;;428.35;113.85;;;;;;;14.72;56.68;101083.50;5088742;28;20761;-79
2023/04/22 06:40:54;;;;;;;436.40;115.07;;;;;;;14.92;56.45;101090.88;5093589;28;20401;-80
2023/04/22 06:43:20;;;;;;;465.25;119.53;;;;;;;15.04;56.00;101085.88;5092539;28;20392;-79
2023/04/22 06:45:45;;;;;;;466.80;119.10;;;;;;;15.26;55.71;101078.69;5092624;28;20395;-81
2023/04/22 06:48:11;;;;;;;452.45;117.70;;;;;;;15.31;55.19;101083.47;5094756;28;20899;-79
2023/04/22 06:50:36;;;;;;;434.30;114.40;;;;;;;15.30;55.12;101090.63;5092888;28;20409;-78
2023/04/22 06:53:02;;;;;;;444.05;116.15;;;;;;;15.45;54.63;101091.41;5095244;28;20896;-80
2023/04/22 06:55:27;;;;;;;478.03;121.37;;;;;;;15.52;54.13;101082.59;5093355;28;20413;-80
2023/04/22 06:57:55;;;;;;;477.75;121.70;;;;;;;15.39;54.03;101076.13;5100166;28;20495;-81
2023/04/22 07:00:20;;;;;;;465.27;120.25;;;;;;;15.58;53.82;101092.53;5102606;28;20456;-80
2023/04/22 07:02:46;;;;;;;462.17;118.68;;;;;;;15.48;52.08;101075.00;5095490;28;20393;-80
2023/04/22 07:05:11;;;;;;;460.50;117.83;;;;;;;15.41;51.12;101083.94;5097300;28;20417;-80
2023/04/22 07:07:37;;;;;;;465.83;119.07;;;;;;;15.63;51.12;101090.09;5098788;28;20472;-80
2023/04/22 07:10:03;;;;;;;469.52;121.15;;;;;;;15.72;50.85;101083.59;5109020;28;20383;-81
2023/04/22 07:12:28;;;;;;;479.70;122.10;;;;;;;15.80;50.72;101083.47;5107029;28;20407;-80
2023/04/22 07:14:54;;;;;;;490.30;123.50;;;;;;;15.93;50.65;101084.56;5098289;28;20752;-78
2023/04/22 07:17:21;;;;;;;503.40;124.75;;;;;;;16.03;49.58;101083.19;5099443;28;20388;-79
2023/04/22 07:19:47;;;;;;;508.60;125.80;;;;;;;16.11;49.39;101097.44;5126204;27;20395;-78
2023/04/22 07:22:13;;;;;;;509.35;125.45;;;;;;;16.23;49.07;101093.19;5106879;28;21003;-79
2023/04/22 07:24:39;;;;;;;484.25;122.13;;;;;;;16.38;48.55;101096.53;5109603;28;20391;-81
2023/04/22 07:27:05;;;;;;;488.77;122.40;;;;;;;16.35;47.66;101088.94;5110278;28;20805;-80
2023/04/22 07:29:31;;;;;;;491.53;122.40;;;;;;;16.32;47.91;101093.84;5092417;28;20540;-80
2023/04/22 07:31:56;;;;;;;494.90;123.73;;;;;;;16.45;47.86;101099.25;5113870;28;20400;-78
2023/04/22 07:34:22;;;;;;;499.37;124.20;;;;;;;16.54;47.54;101108.75;5110374;28;20384;-83
2023/04/22 07:36:50;;;;;;;491.27;121.85;;;;;;;16.62;47.11;101103.22;5109204;28;20445;-79
2023/04/22 07:39:17;;;;;;;502.10;124.35;;;;;;;16.86;47.29;101094.91;5116757;28;21090;-82
2023/04/22 07:41:42;;;;;;;517.85;126.68;;;;;;;17.22;47.96;101105.25;5106271;28;20408;-83
2023/04/22 07:44:09;;;;;;;560.47;136.77;;;;;;;17.43;48.04;101098.91;5094238;28;20704;-83
2023/04/22 07:46:34;;;;;;;590.95;142.00;;;;;;;17.75;47.25;101109.78;5133670;27;20701;-83
2023/04/22 07:49:00;;;;;;;558.63;135.77;;;;;;;17.86;46.75;101103.00;5112082;28;20411;-82
2023/04/22 07:51:25;;;;;;;590.37;142.10;;;;;;;17.98;46.72;101106.69;5125621;28;20388;-83
2023/04/22 07:53:51;;;;;;;610.90;146.17;;;;;;;18.19;46.55;101107.50;5106116;28;20772;-81
2023/04/22 07:56:16;;;;;;;617.10;148.20;;;;;;;18.12;44.95;101102.94;5117884;28;20380;-79
2023/04/22 07:58:42;;;;;;;634.70;151.47;;;;;;;18.17;44.14;101105.03;5115341;28;20843;-80
2023/04/22 08:01:07;;;;;;;667.05;158.93;;;;;;;18.17;44.13;101096.13;5114562;28;20379;-80
2023/04/22 08:03:33;;;;;;;864.40;226.87;;;;;;;18.29;44.62;101107.84;5105410;28;20386;-80
2023/04/22 08:05:58;;;;;;;931.05;250.05;;;;;;;18.37;43.97;101104.13;5096902;28;20825;-80
2023/04/22 08:08:24;;;;;;;1211.90;373.43;;;;;;;18.42;43.31;101088.19;5097641;28;20407;-79
2023/04/22 08:10:50;;;;;;;1352.55;446.30;;;;;;;18.49;42.68;101089.00;5099145;28;20872;-80
2023/04/22 08:13:15;;;;;;;1294.70;415.02;;;;;;;18.49;42.19;101089.00;5091575;28;20397;-79
2023/04/22 08:15:41;;;;;;;1230.53;393.33;;;;;;;18.56;41.25;101094.34;5093387;28;20392;-80
2023/04/22 08:18:06;;;;;;;1210.60;383.52;;;;;;;18.56;41.40;101088.97;5093289;28;20450;-80
2023/04/22 08:29:43;;;;;;;1150.25;351.83;;;;;;;19.16;40.82;101094.00;5110062;27;20457;-81
2023/04/22 08:32:08;;;;;;;1156.20;355.83;;;;;;;19.07;40.39;101091.59;5109114;28;20393;-83
2023/04/22 08:34:34;;;;;;;1177.53;365.53;;;;;;;19.15;40.44;101097.75;5110110;28;20389;-81
2023/04/22 08:36:59;;;;;;;1176.90;365.27;;;;;;;19.21;40.80;101083.44;5109713;28;20380;-82
2023/04/22 08:43:27;;;;;;;1156.72;357.48;;;;;;;19.41;40.01;101086.81;5108817;27;20782;-79
2023/04/22 08:45:52;;;;;;;1173.22;358.92;;;;;;;19.42;39.94;101082.25;5109382;28;20737;-81
2023/04/22 08:48:18;;;;;;;1169.47;362.13;;;;;;;19.43;39.68;101083.91;5103948;28;20876;-80
2023/04/22 08:50:46;;;;;;;1166.90;360.25;;;;;;;19.42;39.15;101087.63;5110701;28;20373;-80
2023/04/22 08:53:12;;;;;;;1167.85;361.02;;;;;;;19.55;38.99;101092.06;5110942;28;20748;-80
2023/04/22 08:55:42;;;;;;;1170.45;364.05;;;;;;;19.63;38.67;101081.84;5111758;28;20384;-80
2023/04/22 08:58:09;;;;;;;1172.25;361.83;;;;;;;19.55;38.25;101084.00;5105225;28;20385;-79
2023/04/22 09:00:35;;;;;;;1174.50;364.35;;;;;;;19.57;38.47;101087.28;5090838;28;20378;-79
2023/04/22 09:03:04;;;;;;;1143.27;349.30;;;;;;;19.74;38.28;101088.41;5090083;28;20373;-81
2023/04/22 09:05:32;;;;;;;1163.35;358.10;;;;;;;19.74;38.20;101072.25;5107368;28;20383;-79
2023/04/22 09:07:58;;;;;;;1156.15;357.08;;;;;;;19.81;38.36;101089.16;5109461;28;20395;-80
2023/04/22 09:14:04;;;;;;;987.67;263.92;;;;;;;19.75;37.47;101084.66;5112114;27;20380;-78
2023/04/22 09:16:31;;;;;;;1006.28;272.05;;;;;;;19.89;37.70;101073.78;5112772;28;20853;-79
2023/04/22 09:18:56;;;;;;;1018.45;277.35;;;;;;;20.00;37.95;101081.91;5111197;28;20385;-78
2023/04/22 09:21:28;;;;;;;975.42;259.10;;;;;;;20.16;37.95;101077.81;5113192;28;20872;-80
2023/04/22 09:23:55;;;;;;;983.30;262.52;;;;;;;20.18;37.82;101080.28;5119185;28;20368;-80
2023/04/22 09:26:25;;;;;;;987.30;264.43;;;;;;;20.19;38.22;101065.78;5112480;28;20492;-82
2023/04/22 09:28:57;;;;;;;981.97;262.50;;;;;;;20.26;38.08;101063.84;5112854;28;20440;-80
2023/04/22 09:31:24;;;;;;;988.97;264.90;;;;;;;20.37;37.42;101078.41;5112373;28;20395;-79
2023/04/22 09:33:57;;;;;;;994.55;268.52;;;;;;;20.42;37.21;101062.41;5109843;28;20500;-80
2023/04/22 09:36:27;;;;;;;1007.45;274.38;;;;;;;20.40;37.38;101061.78;5110395;28;20380;-79
2023/04/22 09:38:54;;;;;;;1023.40;280.42;;;;;;;20.55;37.68;101053.31;5110942;28;20395;-79
2023/04/22 09:41:31;;;;;;;1028.57;283.13;;;;;;;20.60;36.72;101069.63;5122660;28;20452;-80
2023/04/22 09:43:58;;;;;;;1035.87;286.57;;;;;;;20.57;36.80;101057.41;5113678;28;20400;-80
2023/04/22 09:46:25;;;;;;;1037.40;287.73;;;;;;;20.53;36.75;101053.53;5110430;28;20880;-77
2023/04/22 09:48:53;;;;;;;1033.18;284.80;;;;;;;20.57;36.40;101054.72;5111469;28;20381;-79
2023/04/22 09:51:19;;;;;;;1041.37;287.97;;;;;;;20.53;36.35;101048.16;5124034;28;20396;-82
2023/04/22 09:53:45;;;;;;;1048.87;291.30;;;;;;;20.70;36.51;101048.34;5123127;28;20404;-80
2023/04/22 09:56:10;;;;;;;1050.40;291.98;;;;;;;20.78;36.17;101034.56;5110244;28;20597;-79
2023/04/22 09:58:39;;;;;;;1051.88;292.38;;;;;;;20.80;36.03;101040.56;5109637;28;20381;-81
2023/04/22 10:01:05;;;;;;;1058.90;295.47;;;;;;;20.74;35.41;101044.19;5100539;28;20770;-80
2023/04/22 10:03:31;;;;;;;1062.23;297.20;;;;;;;20.74;34.35;101044.19;5070242;28;20800;-79
2023/04/22 10:05:57;;;;;;;1027.30;282.95;;;;;;;20.68;34.65;101042.38;5068456;28;20400;-80
2023/04/22 10:08:23;;;;;;;1032.32;284.23;;;;;;;20.64;34.95;101033.13;5067786;28;20400;-79
2023/04/22 10:10:49;;;;;;;1045.15;288.92;;;;;;;20.68;34.69;101028.91;5072641;28;21265;-80
2023/04/22 10:13:14;;;;;;;1050.22;292.50;;;;;;;20.64;34.60;101022.34;5065420;28;20427;-79
2023/04/22 10:15:54;;;;;;;1044.47;288.47;;;;;;;20.70;34.64;101026.81;5070885;28;20437;-79
2023/04/22 10:18:23;;;;;;;1062.57;298.60;;;;;;;20.85;34.61;101025.56;5072343;28;20974;-79
2023/04/22 10:20:51;;;;;;;1068.10;300.27;;;;;;;20.90;34.72;101023.81;5100933;28;20408;-79
2023/04/22 10:23:21;;;;;;;1071.75;302.25;;;;;;;20.98;34.59;101015.41;5104461;28;20413;-81
2023/04/22 10:25:51;;;;;;;1075.40;305.77;;;;;;;21.05;34.97;101014.47;5091546;28;20367;-78
2023/04/22 10:28:17;;;;;;;1076.47;306.42;;;;;;;20.90;33.99;101020.31;5092221;28;20371;-79
2023/04/22 10:30:43;;;;;;;1071.65;303.10;;;;;;;20.66;33.96;101011.34;5078488;28;20387;-79
2023/04/22 10:33:30;;;;;;;1052.47;294.37;;;;;;;20.68;34.68;101001.97;5078277;28;20406;-80
2023/04/22 10:36:17;;;;;;;1072.33;304.27;;;;;;;20.87;34.21;101009.97;5069164;28;20395;-79
2023/04/22 10:38:51;;;;;;;1082.32;307.90;;;;;;;20.68;34.06;100998.47;5077022;28;20394;-78
2023/04/22 10:41:22;;;;;;;1090.53;310.17;;;;;;;20.84;33.45;100999.69;5075616;28;20932;-78
2023/04/22 10:43:57;;;;;;;1097.47;313.92;;;;;;;20.91;33.03;101003.09;5076867;28;20479;-82
2023/04/22 10:46:33;;;;;;;1076.15;305.27;;;;;;;20.88;33.21;101000.84;5074432;28;20375;-80
2023/04/22 10:49:20;;;;;;;1081.00;307.23;;;;;;;20.81;33.53;101007.19;5077901;28;20793;-80
2023/04/22 10:51:59;;;;;;;1082.80;308.53;;;;;;;20.87;33.14;100991.13;5079202;28;20383;-79
2023/04/22 10:54:27;;;;;;;1095.65;314.40;;;;;;;20.90;33.11;100996.88;5075987;28;20386;-79
2023/04/22 10:57:06;;;;;;;1096.53;314.83;;;;;;;21.11;33.73;100986.59;5075129;28;20375;-79
2023/04/22 10:59:40;;;;;;;1092.60;312.05;;;;;;;21.15;32.84;101002.06;5079720;28;20395;-79
2023/04/22 11:02:06;;;;;;;1088.50;310.83;;;;;;;21.10;33.11;100991.16;5074988;28;20406;-80
2023/04/22 11:04:32;;;;;;;1093.82;312.02;;;;;;;21.02;33.09;100977.22;5074746;28;20379;-80
2023/04/22 11:07:21;;;;;;;1096.00;312.75;;;;;;;21.13;33.53;100963.72;5076292;28;20401;-79